sensor_id;sensor_type;location;lat;lon;timestamp;P1;durP1;ratioP1;P2;durP2;ratioP2
35074;SDS011;21260;34.984;32.490;2022-10-16T00:01:38;8.70;;;4.47;;
35074;SDS011;21260;34.984;32.490;2022-10-16T00:04:04;7.90;;;4.03;;
35074;SDS011;21260;34.984;32.490;2022-10-16T00:06:31;13.93;;;3.73;;
35074;SDS011;21260;34.984;32.490;2022-10-16T00:08:58;9.80;;;3.63;;
35074;SDS011;21260;34.984;32.490;2022-10-16T00:11:26;6.77;;;3.53;;
35074;SDS011;21260;34.984;32.490;2022-10-16T00:13:59;10.90;;;3.57;;
35074;SDS011;21260;34.984;32.490;2022-10-16T00:16:28;9.47;;;3.67;;
35074;SDS011;21260;34.984;32.490;2022-10-16T00:18:55;11.20;;;3.57;;
35074;SDS011;21260;34.984;32.490;2022-10-16T00:21:23;8.33;;;2.93;;
35074;SDS011;21260;34.984;32.490;2022-10-16T00:23:53;8.50;;;3.00;;
35074;SDS011;21260;34.984;32.490;2022-10-16T00:26:27;8.93;;;3.03;;
35074;SDS011;21260;34.984;32.490;2022-10-16T00:28:56;7.43;;;3.40;;
35074;SDS011;21260;34.984;32.490;2022-10-16T00:31:25;11.67;;;3.23;;
35074;SDS011;21260;34.984;32.490;2022-10-16T00:33:54;6.87;;;3.00;;
35074;SDS011;21260;34.984;32.490;2022-10-16T00:36:22;7.37;;;3.20;;
35074;SDS011;21260;34.984;32.490;2022-10-16T00:38:52;6.97;;;2.93;;
35074;SDS011;21260;34.984;32.490;2022-10-16T00:41:20;6.13;;;2.73;;
35074;SDS011;21260;34.984;32.490;2022-10-16T00:43:50;13.13;;;2.97;;
35074;SDS011;21260;34.984;32.490;2022-10-16T00:51:32;16.67;;;2.50;;
35074;SDS011;21260;34.984;32.490;2022-10-16T00:54:13;8.47;;;2.57;;
35074;SDS011;21260;34.984;32.490;2022-10-16T00:56:45;8.87;;;2.37;;
35074;SDS011;21260;34.984;32.490;2022-10-16T00:59:14;11.17;;;2.53;;
35074;SDS011;21260;34.984;32.490;2022-10-16T01:01:51;8.30;;;2.60;;
35074;SDS011;21260;34.984;32.490;2022-10-16T01:04:18;9.40;;;2.47;;
35074;SDS011;21260;34.984;32.490;2022-10-16T01:12:41;10.70;;;2.77;;
35074;SDS011;21260;34.984;32.490;2022-10-16T01:15:22;7.53;;;2.37;;
35074;SDS011;21260;34.984;32.490;2022-10-16T01:20:59;6.57;;;2.23;;
35074;SDS011;21260;34.984;32.490;2022-10-16T01:23:41;10.17;;;2.53;;
35074;SDS011;21260;34.984;32.490;2022-10-16T01:29:37;13.63;;;2.97;;
35074;SDS011;21260;34.984;32.490;2022-10-16T01:32:31;12.33;;;2.70;;
35074;SDS011;21260;34.984;32.490;2022-10-16T01:37:51;14.63;;;2.77;;
35074;SDS011;21260;34.984;32.490;2022-10-16T01:40:44;12.43;;;2.83;;
35074;SDS011;21260;34.984;32.490;2022-10-16T01:43:19;36.50;;;3.83;;
35074;SDS011;21260;34.984;32.490;2022-10-16T01:45:52;24.47;;;4.20;;
35074;SDS011;21260;34.984;32.490;2022-10-16T01:48:19;57.23;;;8.33;;
35074;SDS011;21260;34.984;32.490;2022-10-16T01:50:52;34.10;;;7.07;;
35074;SDS011;21260;34.984;32.490;2022-10-16T01:53:30;17.60;;;4.70;;
35074;SDS011;21260;34.984;32.490;2022-10-16T01:55:57;15.07;;;3.90;;
35074;SDS011;21260;34.984;32.490;2022-10-16T01:58:27;16.43;;;4.33;;
35074;SDS011;21260;34.984;32.490;2022-10-16T02:00:59;18.83;;;4.67;;
35074;SDS011;21260;34.984;32.490;2022-10-16T02:03:30;19.10;;;4.83;;
35074;SDS011;21260;34.984;32.490;2022-10-16T02:05:59;16.67;;;4.87;;
35074;SDS011;21260;34.984;32.490;2022-10-16T02:08:27;24.70;;;5.17;;
35074;SDS011;21260;34.984;32.490;2022-10-16T02:10:59;18.80;;;4.83;;
35074;SDS011;21260;34.984;32.490;2022-10-16T02:13:41;15.07;;;4.27;;
35074;SDS011;21260;34.984;32.490;2022-10-16T02:16:14;13.57;;;3.87;;
35074;SDS011;21260;34.984;32.490;2022-10-16T02:18:41;18.97;;;4.03;;
35074;SDS011;21260;34.984;32.490;2022-10-16T02:23:54;19.17;;;3.97;;
35074;SDS011;21260;34.984;32.490;2022-10-16T02:26:52;10.40;;;3.33;;
35074;SDS011;21260;34.984;32.490;2022-10-16T02:29:44;13.00;;;3.60;;
35074;SDS011;21260;34.984;32.490;2022-10-16T02:32:22;21.73;;;4.73;;
35074;SDS011;21260;34.984;32.490;2022-10-16T02:34:56;19.00;;;4.40;;
35074;SDS011;21260;34.984;32.490;2022-10-16T02:37:25;12.30;;;3.70;;
35074;SDS011;21260;34.984;32.490;2022-10-16T02:39:53;14.33;;;3.70;;
35074;SDS011;21260;34.984;32.490;2022-10-16T02:42:27;15.63;;;3.70;;
35074;SDS011;21260;34.984;32.490;2022-10-16T02:45:06;22.27;;;3.70;;
35074;SDS011;21260;34.984;32.490;2022-10-16T02:47:34;20.90;;;4.60;;
35074;SDS011;21260;34.984;32.490;2022-10-16T02:50:01;18.60;;;4.03;;
35074;SDS011;21260;34.984;32.490;2022-10-16T02:52:28;18.20;;;4.80;;
35074;SDS011;21260;34.984;32.490;2022-10-16T02:54:55;19.07;;;4.30;;
35074;SDS011;21260;34.984;32.490;2022-10-16T02:57:21;18.17;;;4.13;;
35074;SDS011;21260;34.984;32.490;2022-10-16T02:59:47;14.90;;;4.77;;
35074;SDS011;21260;34.984;32.490;2022-10-16T03:02:13;15.90;;;4.40;;
35074;SDS011;21260;34.984;32.490;2022-10-16T03:04:40;18.63;;;4.53;;
35074;SDS011;21260;34.984;32.490;2022-10-16T03:07:06;17.97;;;4.30;;
35074;SDS011;21260;34.984;32.490;2022-10-16T03:09:32;19.97;;;4.60;;
35074;SDS011;21260;34.984;32.490;2022-10-16T03:12:00;19.23;;;4.73;;
35074;SDS011;21260;34.984;32.490;2022-10-16T03:14:26;15.00;;;4.53;;
35074;SDS011;21260;34.984;32.490;2022-10-16T03:16:52;17.20;;;4.87;;
35074;SDS011;21260;34.984;32.490;2022-10-16T03:19:19;20.73;;;4.70;;
35074;SDS011;21260;34.984;32.490;2022-10-16T03:21:46;14.70;;;4.00;;
35074;SDS011;21260;34.984;32.490;2022-10-16T03:24:12;12.97;;;4.57;;
35074;SDS011;21260;34.984;32.490;2022-10-16T03:26:38;17.90;;;5.07;;
35074;SDS011;21260;34.984;32.490;2022-10-16T03:29:05;19.27;;;4.40;;
35074;SDS011;21260;34.984;32.490;2022-10-16T03:31:31;14.60;;;4.77;;
35074;SDS011;21260;34.984;32.490;2022-10-16T03:33:58;15.70;;;4.30;;
35074;SDS011;21260;34.984;32.490;2022-10-16T03:36:24;13.27;;;4.90;;
35074;SDS011;21260;34.984;32.490;2022-10-16T03:38:51;18.60;;;4.23;;
35074;SDS011;21260;34.984;32.490;2022-10-16T03:41:17;16.73;;;4.60;;
35074;SDS011;21260;34.984;32.490;2022-10-16T03:43:43;25.33;;;5.27;;
35074;SDS011;21260;34.984;32.490;2022-10-16T03:46:10;15.57;;;4.57;;
35074;SDS011;21260;34.984;32.490;2022-10-16T03:48:37;14.10;;;4.60;;
35074;SDS011;21260;34.984;32.490;2022-10-16T03:51:05;13.90;;;5.10;;
35074;SDS011;21260;34.984;32.490;2022-10-16T03:53:31;13.07;;;4.60;;
35074;SDS011;21260;34.984;32.490;2022-10-16T03:55:58;18.97;;;5.07;;
35074;SDS011;21260;34.984;32.490;2022-10-16T03:58:25;18.47;;;4.20;;
35074;SDS011;21260;34.984;32.490;2022-10-16T04:00:51;15.97;;;4.33;;
35074;SDS011;21260;34.984;32.490;2022-10-16T04:03:17;14.67;;;4.33;;
35074;SDS011;21260;34.984;32.490;2022-10-16T04:05:44;18.10;;;4.63;;
35074;SDS011;21260;34.984;32.490;2022-10-16T04:08:10;14.33;;;4.67;;
35074;SDS011;21260;34.984;32.490;2022-10-16T04:10:36;15.80;;;4.63;;
35074;SDS011;21260;34.984;32.490;2022-10-16T04:13:03;12.93;;;3.70;;
35074;SDS011;21260;34.984;32.490;2022-10-16T04:15:29;12.40;;;4.13;;
35074;SDS011;21260;34.984;32.490;2022-10-16T04:17:55;16.70;;;4.17;;
35074;SDS011;21260;34.984;32.490;2022-10-16T04:20:22;12.43;;;4.40;;
35074;SDS011;21260;34.984;32.490;2022-10-16T04:22:51;12.40;;;4.30;;
35074;SDS011;21260;34.984;32.490;2022-10-16T04:25:18;18.07;;;4.53;;
35074;SDS011;21260;34.984;32.490;2022-10-16T04:27:44;14.97;;;4.27;;
35074;SDS011;21260;34.984;32.490;2022-10-16T04:30:10;15.00;;;4.43;;
35074;SDS011;21260;34.984;32.490;2022-10-16T04:32:38;11.83;;;4.17;;
35074;SDS011;21260;34.984;32.490;2022-10-16T04:35:05;19.50;;;4.80;;
35074;SDS011;21260;34.984;32.490;2022-10-16T04:37:33;17.73;;;5.23;;
35074;SDS011;21260;34.984;32.490;2022-10-16T04:39:59;21.53;;;4.60;;
35074;SDS011;21260;34.984;32.490;2022-10-16T04:42:26;18.07;;;4.80;;
35074;SDS011;21260;34.984;32.490;2022-10-16T04:44:52;15.20;;;4.40;;
35074;SDS011;21260;34.984;32.490;2022-10-16T04:47:18;21.47;;;5.33;;
35074;SDS011;21260;34.984;32.490;2022-10-16T04:49:44;28.27;;;5.73;;
35074;SDS011;21260;34.984;32.490;2022-10-16T04:52:11;19.10;;;5.80;;
35074;SDS011;21260;34.984;32.490;2022-10-16T04:54:38;18.43;;;5.60;;
35074;SDS011;21260;34.984;32.490;2022-10-16T04:57:04;25.20;;;6.10;;
35074;SDS011;21260;34.984;32.490;2022-10-16T04:59:31;19.90;;;5.30;;
35074;SDS011;21260;34.984;32.490;2022-10-16T05:01:57;15.70;;;4.83;;
35074;SDS011;21260;34.984;32.490;2022-10-16T05:04:23;20.80;;;5.10;;
35074;SDS011;21260;34.984;32.490;2022-10-16T05:06:49;16.37;;;5.13;;
35074;SDS011;21260;34.984;32.490;2022-10-16T05:09:15;21.70;;;5.47;;
35074;SDS011;21260;34.984;32.490;2022-10-16T05:11:42;16.70;;;4.80;;
35074;SDS011;21260;34.984;32.490;2022-10-16T05:14:09;18.27;;;6.10;;
35074;SDS011;21260;34.984;32.490;2022-10-16T05:16:35;27.50;;;6.47;;
35074;SDS011;21260;34.984;32.490;2022-10-16T05:19:02;21.53;;;6.90;;
35074;SDS011;21260;34.984;32.490;2022-10-16T05:21:28;15.20;;;5.33;;
35074;SDS011;21260;34.984;32.490;2022-10-16T05:23:55;18.93;;;4.40;;
35074;SDS011;21260;34.984;32.490;2022-10-16T05:26:21;21.20;;;4.53;;
35074;SDS011;21260;34.984;32.490;2022-10-16T05:28:48;19.23;;;5.03;;
35074;SDS011;21260;34.984;32.490;2022-10-16T05:31:15;13.20;;;3.60;;
35074;SDS011;21260;34.984;32.490;2022-10-16T05:33:43;10.83;;;3.27;;
35074;SDS011;21260;34.984;32.490;2022-10-16T05:36:09;10.27;;;2.80;;
35074;SDS011;21260;34.984;32.490;2022-10-16T05:38:43;8.37;;;2.40;;
35074;SDS011;21260;34.984;32.490;2022-10-16T05:41:09;5.50;;;1.97;;
35074;SDS011;21260;34.984;32.490;2022-10-16T05:43:36;7.40;;;1.93;;
35074;SDS011;21260;34.984;32.490;2022-10-16T05:46:04;5.30;;;1.60;;
35074;SDS011;21260;34.984;32.490;2022-10-16T05:48:32;6.57;;;1.77;;
35074;SDS011;21260;34.984;32.490;2022-10-16T05:51:16;5.33;;;2.17;;
35074;SDS011;21260;34.984;32.490;2022-10-16T05:53:42;5.17;;;1.50;;
35074;SDS011;21260;34.984;32.490;2022-10-16T05:56:10;4.13;;;1.80;;
35074;SDS011;21260;34.984;32.490;2022-10-16T05:58:38;2.33;;;1.20;;
35074;SDS011;21260;34.984;32.490;2022-10-16T06:01:10;4.37;;;1.60;;
35074;SDS011;21260;34.984;32.490;2022-10-16T06:03:42;8.63;;;1.90;;
35074;SDS011;21260;34.984;32.490;2022-10-16T06:06:19;5.03;;;1.60;;
35074;SDS011;21260;34.984;32.490;2022-10-16T06:08:49;8.73;;;1.87;;
35074;SDS011;21260;34.984;32.490;2022-10-16T06:11:17;5.10;;;1.43;;
35074;SDS011;21260;34.984;32.490;2022-10-16T06:13:53;7.13;;;1.60;;
35074;SDS011;21260;34.984;32.490;2022-10-16T06:16:23;5.43;;;1.57;;
35074;SDS011;21260;34.984;32.490;2022-10-16T06:18:53;6.77;;;1.67;;
35074;SDS011;21260;34.984;32.490;2022-10-16T06:21:22;5.53;;;1.70;;
35074;SDS011;21260;34.984;32.490;2022-10-16T06:23:51;3.13;;;1.60;;
35074;SDS011;21260;34.984;32.490;2022-10-16T06:26:20;5.90;;;1.50;;
35074;SDS011;21260;34.984;32.490;2022-10-16T06:28:50;6.53;;;1.97;;
35074;SDS011;21260;34.984;32.490;2022-10-16T06:31:20;7.20;;;1.73;;
35074;SDS011;21260;34.984;32.490;2022-10-16T06:33:51;5.97;;;1.70;;
35074;SDS011;21260;34.984;32.490;2022-10-16T06:36:17;5.00;;;1.60;;
35074;SDS011;21260;34.984;32.490;2022-10-16T06:38:44;6.00;;;2.07;;
35074;SDS011;21260;34.984;32.490;2022-10-16T06:41:11;6.53;;;1.70;;
35074;SDS011;21260;34.984;32.490;2022-10-16T06:43:41;6.00;;;1.60;;
35074;SDS011;21260;34.984;32.490;2022-10-16T06:46:10;15.57;;;1.87;;
35074;SDS011;21260;34.984;32.490;2022-10-16T06:48:41;9.80;;;1.70;;
35074;SDS011;21260;34.984;32.490;2022-10-16T06:51:12;7.90;;;2.03;;
35074;SDS011;21260;34.984;32.490;2022-10-16T06:53:44;7.87;;;2.10;;
35074;SDS011;21260;34.984;32.490;2022-10-16T06:56:23;8.30;;;2.20;;
35074;SDS011;21260;34.984;32.490;2022-10-16T06:58:52;6.87;;;1.73;;
35074;SDS011;21260;34.984;32.490;2022-10-16T07:01:21;9.13;;;2.47;;
35074;SDS011;21260;34.984;32.490;2022-10-16T07:03:50;6.13;;;2.20;;
35074;SDS011;21260;34.984;32.490;2022-10-16T07:06:17;7.30;;;2.33;;
35074;SDS011;21260;34.984;32.490;2022-10-16T07:08:47;4.00;;;1.70;;
35074;SDS011;21260;34.984;32.490;2022-10-16T07:11:14;5.23;;;1.87;;
35074;SDS011;21260;34.984;32.490;2022-10-16T07:13:44;7.63;;;1.73;;
35074;SDS011;21260;34.984;32.490;2022-10-16T07:16:16;10.23;;;1.87;;
35074;SDS011;21260;34.984;32.490;2022-10-16T07:18:46;4.70;;;1.83;;
35074;SDS011;21260;34.984;32.490;2022-10-16T07:21:20;3.03;;;1.53;;
35074;SDS011;21260;34.984;32.490;2022-10-16T07:23:51;3.23;;;1.20;;
35074;SDS011;21260;34.984;32.490;2022-10-16T07:26:28;4.60;;;1.60;;
35074;SDS011;21260;34.984;32.490;2022-10-16T07:28:56;10.50;;;2.40;;
35074;SDS011;21260;34.984;32.490;2022-10-16T07:31:26;8.07;;;2.83;;
35074;SDS011;21260;34.984;32.490;2022-10-16T07:33:54;11.33;;;2.57;;
35074;SDS011;21260;34.984;32.490;2022-10-16T07:36:23;8.60;;;2.77;;
35074;SDS011;21260;34.984;32.490;2022-10-16T07:38:50;7.53;;;2.57;;
35074;SDS011;21260;34.984;32.490;2022-10-16T07:41:18;13.60;;;3.07;;
35074;SDS011;21260;34.984;32.490;2022-10-16T07:43:50;10.90;;;2.67;;
35074;SDS011;21260;34.984;32.490;2022-10-16T07:46:20;8.37;;;2.57;;
35074;SDS011;21260;34.984;32.490;2022-10-16T07:48:50;7.47;;;2.13;;
35074;SDS011;21260;34.984;32.490;2022-10-16T07:51:19;3.97;;;1.40;;
35074;SDS011;21260;34.984;32.490;2022-10-16T07:53:49;7.40;;;1.50;;
35074;SDS011;21260;34.984;32.490;2022-10-16T07:56:16;3.90;;;1.37;;
35074;SDS011;21260;34.984;32.490;2022-10-16T07:58:46;5.57;;;1.30;;
35074;SDS011;21260;34.984;32.490;2022-10-16T08:01:16;4.37;;;1.40;;
35074;SDS011;21260;34.984;32.490;2022-10-16T08:03:45;2.63;;;1.20;;
35074;SDS011;21260;34.984;32.490;2022-10-16T08:06:16;3.23;;;1.30;;
35074;SDS011;21260;34.984;32.490;2022-10-16T08:08:47;3.90;;;1.20;;
35074;SDS011;21260;34.984;32.490;2022-10-16T08:11:16;5.87;;;1.50;;
35074;SDS011;21260;34.984;32.490;2022-10-16T08:13:43;1.90;;;1.00;;
35074;SDS011;21260;34.984;32.490;2022-10-16T08:16:10;4.97;;;1.37;;
35074;SDS011;21260;34.984;32.490;2022-10-16T08:18:37;2.90;;;1.20;;
35074;SDS011;21260;34.984;32.490;2022-10-16T08:21:06;5.73;;;1.47;;
35074;SDS011;21260;34.984;32.490;2022-10-16T08:23:38;2.67;;;1.20;;
35074;SDS011;21260;34.984;32.490;2022-10-16T08:26:05;3.53;;;1.27;;
35074;SDS011;21260;34.984;32.490;2022-10-16T08:28:35;3.40;;;1.20;;
35074;SDS011;21260;34.984;32.490;2022-10-16T08:31:07;5.27;;;1.30;;
35074;SDS011;21260;34.984;32.490;2022-10-16T08:33:40;4.77;;;1.30;;
35074;SDS011;21260;34.984;32.490;2022-10-16T08:36:11;6.33;;;1.33;;
35074;SDS011;21260;34.984;32.490;2022-10-16T08:38:39;5.13;;;1.17;;
35074;SDS011;21260;34.984;32.490;2022-10-16T08:44:23;4.65;;;1.40;;
35074;SDS011;21260;34.984;32.490;2022-10-16T08:47:35;4.17;;;1.03;;
35074;SDS011;21260;34.984;32.490;2022-10-16T08:50:26;6.10;;;1.30;;
35074;SDS011;21260;34.984;32.490;2022-10-16T08:52:56;5.27;;;1.30;;
35074;SDS011;21260;34.984;32.490;2022-10-16T08:58:10;2.87;;;1.10;;
35074;SDS011;21260;34.984;32.490;2022-10-16T09:01:01;3.63;;;1.35;;
35074;SDS011;21260;34.984;32.490;2022-10-16T09:06:16;4.03;;;0.90;;
35074;SDS011;21260;34.984;32.490;2022-10-16T09:09:09;3.40;;;1.00;;
35074;SDS011;21260;34.984;32.490;2022-10-16T09:15:23;2.50;;;0.90;;
35074;SDS011;21260;34.984;32.490;2022-10-16T09:20:45;5.27;;;1.10;;
35074;SDS011;21260;34.984;32.490;2022-10-16T09:23:37;2.30;;;1.00;;
35074;SDS011;21260;34.984;32.490;2022-10-16T09:26:05;3.40;;;1.10;;
35074;SDS011;21260;34.984;32.490;2022-10-16T09:28:38;1.10;;;0.90;;
35074;SDS011;21260;34.984;32.490;2022-10-16T09:31:15;3.77;;;1.00;;
35074;SDS011;21260;34.984;32.490;2022-10-16T09:33:48;8.30;;;1.07;;
35074;SDS011;21260;34.984;32.490;2022-10-16T09:36:25;4.50;;;0.80;;
35074;SDS011;21260;34.984;32.490;2022-10-16T09:39:02;4.73;;;1.00;;
35074;SDS011;21260;34.984;32.490;2022-10-16T09:41:35;5.53;;;0.80;;
35074;SDS011;21260;34.984;32.490;2022-10-16T09:50:00;5.47;;;1.10;;
35074;SDS011;21260;34.984;32.490;2022-10-16T09:52:47;2.73;;;0.90;;
35074;SDS011;21260;34.984;32.490;2022-10-16T09:55:16;3.40;;;0.93;;
35074;SDS011;21260;34.984;32.490;2022-10-16T09:57:50;2.57;;;0.83;;
35074;SDS011;21260;34.984;32.490;2022-10-16T10:00:20;4.20;;;1.00;;
35074;SDS011;21260;34.984;32.490;2022-10-16T10:02:49;5.13;;;0.80;;
35074;SDS011;21260;34.984;32.490;2022-10-16T10:05:21;2.10;;;0.80;;
35074;SDS011;21260;34.984;32.490;2022-10-16T10:07:54;2.67;;;0.90;;
35074;SDS011;21260;34.984;32.490;2022-10-16T10:10:36;3.13;;;0.83;;
35074;SDS011;21260;34.984;32.490;2022-10-16T10:13:19;3.40;;;0.90;;
35074;SDS011;21260;34.984;32.490;2022-10-16T10:15:49;2.13;;;0.80;;
35074;SDS011;21260;34.984;32.490;2022-10-16T10:18:18;4.93;;;0.60;;
35074;SDS011;21260;34.984;32.490;2022-10-16T10:20:59;2.50;;;0.93;;
35074;SDS011;21260;34.984;32.490;2022-10-16T10:23:28;3.13;;;0.83;;
35074;SDS011;21260;34.984;32.490;2022-10-16T10:28:54;1.93;;;0.70;;
35074;SDS011;21260;34.984;32.490;2022-10-16T10:50:51;3.80;;;0.85;;
35074;SDS011;21260;34.984;32.490;2022-10-16T11:05:31;3.20;;;0.80;;
35074;SDS011;21260;34.984;32.490;2022-10-16T11:08:19;2.73;;;0.87;;
35074;SDS011;21260;34.984;32.490;2022-10-16T11:11:04;0.83;;;0.40;;
35074;SDS011;21260;34.984;32.490;2022-10-16T11:13:59;4.57;;;0.80;;
35074;SDS011;21260;34.984;32.490;2022-10-16T11:16:38;1.73;;;0.83;;
35074;SDS011;21260;34.984;32.490;2022-10-16T11:19:25;1.03;;;0.67;;
35074;SDS011;21260;34.984;32.490;2022-10-16T11:22:17;1.17;;;0.50;;
35074;SDS011;21260;34.984;32.490;2022-10-16T11:30:30;1.77;;;0.60;;
35074;SDS011;21260;34.984;32.490;2022-10-16T11:36:00;2.70;;;0.60;;
35074;SDS011;21260;34.984;32.490;2022-10-16T11:38:35;4.90;;;0.93;;
35074;SDS011;21260;34.984;32.490;2022-10-16T11:50:50;2.00;;;1.13;;
35074;SDS011;21260;34.984;32.490;2022-10-16T11:56:32;4.60;;;1.00;;
35074;SDS011;21260;34.984;32.490;2022-10-16T11:59:13;6.43;;;1.30;;
35074;SDS011;21260;34.984;32.490;2022-10-16T12:08:18;6.10;;;1.43;;
35074;SDS011;21260;34.984;32.490;2022-10-16T12:10:47;3.30;;;1.50;;
35074;SDS011;21260;34.984;32.490;2022-10-16T12:13:34;4.37;;;1.37;;
35074;SDS011;21260;34.984;32.490;2022-10-16T12:16:04;5.10;;;1.50;;
35074;SDS011;21260;34.984;32.490;2022-10-16T12:18:49;4.50;;;1.40;;
35074;SDS011;21260;34.984;32.490;2022-10-16T12:21:59;6.10;;;1.50;;
35074;SDS011;21260;34.984;32.490;2022-10-16T12:24:39;4.93;;;1.50;;
35074;SDS011;21260;34.984;32.490;2022-10-16T12:30:01;2.80;;;1.10;;
35074;SDS011;21260;34.984;32.490;2022-10-16T12:32:32;3.90;;;1.27;;
35074;SDS011;21260;34.984;32.490;2022-10-16T12:35:03;2.50;;;1.20;;
35074;SDS011;21260;34.984;32.490;2022-10-16T12:37:43;4.80;;;1.30;;
35074;SDS011;21260;34.984;32.490;2022-10-16T12:42:53;4.37;;;1.50;;
35074;SDS011;21260;34.984;32.490;2022-10-16T12:47:54;4.30;;;1.73;;
35074;SDS011;21260;34.984;32.490;2022-10-16T12:53:04;4.17;;;1.87;;
35074;SDS011;21260;34.984;32.490;2022-10-16T12:55:55;6.63;;;2.00;;
35074;SDS011;21260;34.984;32.490;2022-10-16T12:59:00;5.27;;;2.10;;
35074;SDS011;21260;34.984;32.490;2022-10-16T13:02:14;10.10;;;2.10;;
35074;SDS011;21260;34.984;32.490;2022-10-16T13:05:10;6.67;;;2.27;;
35074;SDS011;21260;34.984;32.490;2022-10-16T13:11:05;13.57;;;2.30;;
35074;SDS011;21260;34.984;32.490;2022-10-16T13:19:50;9.63;;;2.60;;
35074;SDS011;21260;34.984;32.490;2022-10-16T13:23:17;9.37;;;3.07;;
35074;SDS011;21260;34.984;32.490;2022-10-16T13:28:49;6.83;;;2.00;;
35074;SDS011;21260;34.984;32.490;2022-10-16T13:31:20;6.40;;;2.20;;
35074;SDS011;21260;34.984;32.490;2022-10-16T13:33:51;9.37;;;2.53;;
35074;SDS011;21260;34.984;32.490;2022-10-16T13:36:26;6.47;;;2.80;;
35074;SDS011;21260;34.984;32.490;2022-10-16T13:39:13;7.83;;;2.50;;
35074;SDS011;21260;34.984;32.490;2022-10-16T13:44:34;9.40;;;2.70;;
35074;SDS011;21260;34.984;32.490;2022-10-16T13:47:20;11.37;;;3.00;;
35074;SDS011;21260;34.984;32.490;2022-10-16T13:52:44;5.40;;;2.67;;
35074;SDS011;21260;34.984;32.490;2022-10-16T13:55:15;6.60;;;2.63;;
35074;SDS011;21260;34.984;32.490;2022-10-16T13:57:47;8.03;;;2.80;;
35074;SDS011;21260;34.984;32.490;2022-10-16T14:00:20;8.67;;;2.70;;
35074;SDS011;21260;34.984;32.490;2022-10-16T14:02:57;8.53;;;2.83;;
35074;SDS011;21260;34.984;32.490;2022-10-16T14:05:33;12.63;;;3.30;;
35074;SDS011;21260;34.984;32.490;2022-10-16T14:08:00;6.57;;;3.00;;
35074;SDS011;21260;34.984;32.490;2022-10-16T14:10:29;7.57;;;2.60;;
35074;SDS011;21260;34.984;32.490;2022-10-16T14:13:01;7.53;;;2.50;;
35074;SDS011;21260;34.984;32.490;2022-10-16T14:15:32;6.00;;;2.37;;
35074;SDS011;21260;34.984;32.490;2022-10-16T14:18:01;7.47;;;2.60;;
35074;SDS011;21260;34.984;32.490;2022-10-16T14:20:30;8.10;;;2.53;;
35074;SDS011;21260;34.984;32.490;2022-10-16T14:23:00;6.17;;;2.33;;
35074;SDS011;21260;34.984;32.490;2022-10-16T14:25:47;9.00;;;2.50;;
35074;SDS011;21260;34.984;32.490;2022-10-16T14:28:20;8.63;;;2.60;;
35074;SDS011;21260;34.984;32.490;2022-10-16T14:30:49;5.53;;;2.20;;
35074;SDS011;21260;34.984;32.490;2022-10-16T14:38:39;7.57;;;2.60;;
35074;SDS011;21260;34.984;32.490;2022-10-16T14:41:16;8.63;;;2.53;;
35074;SDS011;21260;34.984;32.490;2022-10-16T14:43:50;9.30;;;2.87;;
35074;SDS011;21260;34.984;32.490;2022-10-16T14:46:38;5.37;;;2.50;;
35074;SDS011;21260;34.984;32.490;2022-10-16T14:51:50;6.30;;;2.40;;
35074;SDS011;21260;34.984;32.490;2022-10-16T14:54:20;8.73;;;2.40;;
35074;SDS011;21260;34.984;32.490;2022-10-16T14:56:54;5.40;;;2.33;;
35074;SDS011;21260;34.984;32.490;2022-10-16T14:59:27;5.43;;;2.20;;
35074;SDS011;21260;34.984;32.490;2022-10-16T15:04:54;6.50;;;2.30;;
35074;SDS011;21260;34.984;32.490;2022-10-16T15:07:23;9.00;;;2.60;;
35074;SDS011;21260;34.984;32.490;2022-10-16T15:09:50;3.93;;;2.07;;
35074;SDS011;21260;34.984;32.490;2022-10-16T15:12:20;5.00;;;2.20;;
35074;SDS011;21260;34.984;32.490;2022-10-16T15:14:47;6.60;;;2.10;;
35074;SDS011;21260;34.984;32.490;2022-10-16T15:17:14;6.50;;;1.90;;
35074;SDS011;21260;34.984;32.490;2022-10-16T15:19:40;7.83;;;2.13;;
35074;SDS011;21260;34.984;32.490;2022-10-16T15:22:08;6.57;;;1.90;;
35074;SDS011;21260;34.984;32.490;2022-10-16T15:24:37;6.40;;;1.73;;
35074;SDS011;21260;34.984;32.490;2022-10-16T15:27:04;4.20;;;1.70;;
35074;SDS011;21260;34.984;32.490;2022-10-16T15:29:30;4.60;;;2.00;;
35074;SDS011;21260;34.984;32.490;2022-10-16T15:31:58;6.80;;;2.40;;
35074;SDS011;21260;34.984;32.490;2022-10-16T15:34:24;5.90;;;2.17;;
35074;SDS011;21260;34.984;32.490;2022-10-16T15:36:50;4.87;;;1.97;;
35074;SDS011;21260;34.984;32.490;2022-10-16T15:39:19;5.57;;;1.60;;
35074;SDS011;21260;34.984;32.490;2022-10-16T15:41:47;4.30;;;2.00;;
35074;SDS011;21260;34.984;32.490;2022-10-16T15:44:18;3.10;;;1.80;;
35074;SDS011;21260;34.984;32.490;2022-10-16T15:46:54;6.37;;;1.67;;
35074;SDS011;21260;34.984;32.490;2022-10-16T15:49:22;4.87;;;1.90;;
35074;SDS011;21260;34.984;32.490;2022-10-16T15:51:50;4.50;;;1.90;;
35074;SDS011;21260;34.984;32.490;2022-10-16T15:54:18;4.33;;;1.60;;
35074;SDS011;21260;34.984;32.490;2022-10-16T15:56:47;3.93;;;1.60;;
35074;SDS011;21260;34.984;32.490;2022-10-16T15:59:14;3.77;;;1.70;;
35074;SDS011;21260;34.984;32.490;2022-10-16T16:01:41;4.57;;;1.60;;
35074;SDS011;21260;34.984;32.490;2022-10-16T16:04:07;5.50;;;1.80;;
35074;SDS011;21260;34.984;32.490;2022-10-16T16:06:34;5.93;;;2.00;;
35074;SDS011;21260;34.984;32.490;2022-10-16T16:09:04;9.37;;;1.83;;
35074;SDS011;21260;34.984;32.490;2022-10-16T16:11:32;5.33;;;1.97;;
35074;SDS011;21260;34.984;32.490;2022-10-16T16:14:04;5.13;;;2.00;;
35074;SDS011;21260;34.984;32.490;2022-10-16T16:16:33;4.97;;;2.10;;
35074;SDS011;21260;34.984;32.490;2022-10-16T16:19:04;6.07;;;1.90;;
35074;SDS011;21260;34.984;32.490;2022-10-16T16:21:32;3.83;;;1.53;;
35074;SDS011;21260;34.984;32.490;2022-10-16T16:24:00;4.30;;;1.53;;
35074;SDS011;21260;34.984;32.490;2022-10-16T16:26:33;4.63;;;2.00;;
35074;SDS011;21260;34.984;32.490;2022-10-16T16:29:04;3.13;;;1.60;;
35074;SDS011;21260;34.984;32.490;2022-10-16T16:31:31;4.57;;;2.03;;
35074;SDS011;21260;34.984;32.490;2022-10-16T16:34:00;5.73;;;1.80;;
35074;SDS011;21260;34.984;32.490;2022-10-16T16:36:28;5.50;;;1.80;;
35074;SDS011;21260;34.984;32.490;2022-10-16T16:38:56;5.03;;;1.83;;
35074;SDS011;21260;34.984;32.490;2022-10-16T16:41:31;3.53;;;1.80;;
35074;SDS011;21260;34.984;32.490;2022-10-16T16:44:05;4.80;;;1.70;;
35074;SDS011;21260;34.984;32.490;2022-10-16T16:46:39;6.97;;;1.87;;
35074;SDS011;21260;34.984;32.490;2022-10-16T16:49:13;5.57;;;2.07;;
35074;SDS011;21260;34.984;32.490;2022-10-16T16:51:45;4.43;;;1.73;;
35074;SDS011;21260;34.984;32.490;2022-10-16T16:54:15;3.50;;;1.73;;
35074;SDS011;21260;34.984;32.490;2022-10-16T16:56:42;4.70;;;2.00;;
35074;SDS011;21260;34.984;32.490;2022-10-16T16:59:12;7.33;;;2.40;;
35074;SDS011;21260;34.984;32.490;2022-10-16T17:01:45;8.63;;;2.23;;
35074;SDS011;21260;34.984;32.490;2022-10-16T17:04:19;9.00;;;2.63;;
35074;SDS011;21260;34.984;32.490;2022-10-16T17:09:46;7.27;;;2.90;;
35074;SDS011;21260;34.984;32.490;2022-10-16T17:12:20;6.60;;;2.50;;
35074;SDS011;21260;34.984;32.490;2022-10-16T17:14:46;7.17;;;2.90;;
35074;SDS011;21260;34.984;32.490;2022-10-16T17:17:15;7.37;;;2.50;;
35074;SDS011;21260;34.984;32.490;2022-10-16T17:19:42;10.97;;;3.17;;
35074;SDS011;21260;34.984;32.490;2022-10-16T17:22:09;6.97;;;2.77;;
35074;SDS011;21260;34.984;32.490;2022-10-16T17:24:40;7.83;;;3.10;;
35074;SDS011;21260;34.984;32.490;2022-10-16T17:27:23;6.13;;;2.97;;